sensor_id;sensor_type;location;lat;lon;timestamp;P1;durP1;ratioP1;P2;durP2;ratioP2
18411;SDS011;27097;51.738;19.472;2023-07-30T00:01:01;2.75;;;2.03;;
18411;SDS011;27097;51.738;19.472;2023-07-30T00:03:27;2.63;;;1.75;;
18411;SDS011;27097;51.738;19.472;2023-07-30T00:05:56;2.80;;;2.00;;
18411;SDS011;27097;51.738;19.472;2023-07-30T00:08:23;2.85;;;1.98;;
18411;SDS011;27097;51.738;19.472;2023-07-30T00:10:50;3.05;;;1.80;;
18411;SDS011;27097;51.738;19.472;2023-07-30T00:13:16;2.90;;;2.10;;
18411;SDS011;27097;51.738;19.472;2023-07-30T00:15:45;3.83;;;2.17;;
18411;SDS011;27097;51.738;19.472;2023-07-30T00:18:12;5.47;;;1.80;;
18411;SDS011;27097;51.738;19.472;2023-07-30T00:20:39;2.95;;;1.70;;
18411;SDS011;27097;51.738;19.472;2023-07-30T00:23:07;2.92;;;1.73;;
18411;SDS011;27097;51.738;19.472;2023-07-30T00:25:34;4.43;;;1.90;;
18411;SDS011;27097;51.738;19.472;2023-07-30T00:28:01;2.72;;;1.80;;
18411;SDS011;27097;51.738;19.472;2023-07-30T00:30:28;5.68;;;2.05;;
18411;SDS011;27097;51.738;19.472;2023-07-30T00:32:55;2.42;;;1.80;;
18411;SDS011;27097;51.738;19.472;2023-07-30T00:35:21;3.80;;;1.70;;
18411;SDS011;27097;51.738;19.472;2023-07-30T00:37:48;3.55;;;2.03;;
18411;SDS011;27097;51.738;19.472;2023-07-30T00:40:17;3.30;;;1.92;;
18411;SDS011;27097;51.738;19.472;2023-07-30T00:42:44;2.63;;;2.20;;
18411;SDS011;27097;51.738;19.472;2023-07-30T00:45:11;2.90;;;1.80;;
18411;SDS011;27097;51.738;19.472;2023-07-30T00:47:37;3.33;;;1.83;;
18411;SDS011;27097;51.738;19.472;2023-07-30T00:50:05;1.98;;;1.70;;
18411;SDS011;27097;51.738;19.472;2023-07-30T00:52:33;4.78;;;2.03;;
18411;SDS011;27097;51.738;19.472;2023-07-30T00:55:01;2.17;;;1.52;;
18411;SDS011;27097;51.738;19.472;2023-07-30T00:57:30;3.33;;;1.90;;
18411;SDS011;27097;51.738;19.472;2023-07-30T00:59:57;2.03;;;1.67;;
18411;SDS011;27097;51.738;19.472;2023-07-30T01:02:24;4.95;;;2.05;;
18411;SDS011;27097;51.738;19.472;2023-07-30T01:04:52;2.63;;;1.88;;
18411;SDS011;27097;51.738;19.472;2023-07-30T01:07:18;2.40;;;1.90;;
18411;SDS011;27097;51.738;19.472;2023-07-30T01:09:45;3.50;;;1.90;;
18411;SDS011;27097;51.738;19.472;2023-07-30T01:12:12;2.45;;;1.85;;
18411;SDS011;27097;51.738;19.472;2023-07-30T01:14:41;4.18;;;2.08;;
18411;SDS011;27097;51.738;19.472;2023-07-30T01:17:11;3.47;;;2.00;;
18411;SDS011;27097;51.738;19.472;2023-07-30T01:19:38;2.53;;;2.00;;
18411;SDS011;27097;51.738;19.472;2023-07-30T01:22:06;3.50;;;1.90;;
18411;SDS011;27097;51.738;19.472;2023-07-30T01:24:33;2.00;;;1.73;;
18411;SDS011;27097;51.738;19.472;2023-07-30T01:27:01;3.60;;;1.67;;
18411;SDS011;27097;51.738;19.472;2023-07-30T01:29:32;2.38;;;1.75;;
18411;SDS011;27097;51.738;19.472;2023-07-30T01:32:05;2.22;;;1.73;;
18411;SDS011;27097;51.738;19.472;2023-07-30T01:34:34;4.07;;;2.00;;
18411;SDS011;27097;51.738;19.472;2023-07-30T01:37:01;2.80;;;1.75;;
18411;SDS011;27097;51.738;19.472;2023-07-30T01:39:31;3.17;;;1.80;;
18411;SDS011;27097;51.738;19.472;2023-07-30T01:41:59;3.90;;;2.20;;
18411;SDS011;27097;51.738;19.472;2023-07-30T01:44:26;2.92;;;1.80;;
18411;SDS011;27097;51.738;19.472;2023-07-30T01:46:52;1.95;;;1.55;;
18411;SDS011;27097;51.738;19.472;2023-07-30T01:49:19;1.80;;;1.60;;
18411;SDS011;27097;51.738;19.472;2023-07-30T01:51:46;4.25;;;1.80;;
18411;SDS011;27097;51.738;19.472;2023-07-30T01:54:13;6.88;;;2.45;;
18411;SDS011;27097;51.738;19.472;2023-07-30T01:56:41;2.75;;;1.85;;
18411;SDS011;27097;51.738;19.472;2023-07-30T01:59:08;3.53;;;1.67;;
18411;SDS011;27097;51.738;19.472;2023-07-30T02:01:35;2.33;;;1.90;;
18411;SDS011;27097;51.738;19.472;2023-07-30T02:04:01;2.53;;;1.88;;
18411;SDS011;27097;51.738;19.472;2023-07-30T02:06:28;3.67;;;1.90;;
18411;SDS011;27097;51.738;19.472;2023-07-30T02:08:55;3.33;;;1.70;;
18411;SDS011;27097;51.738;19.472;2023-07-30T02:11:22;3.05;;;1.73;;
18411;SDS011;27097;51.738;19.472;2023-07-30T02:13:50;2.55;;;1.80;;
18411;SDS011;27097;51.738;19.472;2023-07-30T02:16:17;2.20;;;1.73;;
18411;SDS011;27097;51.738;19.472;2023-07-30T02:18:44;2.30;;;1.70;;
18411;SDS011;27097;51.738;19.472;2023-07-30T02:21:10;2.20;;;1.77;;
18411;SDS011;27097;51.738;19.472;2023-07-30T02:23:37;3.42;;;1.98;;
18411;SDS011;27097;51.738;19.472;2023-07-30T02:26:04;2.17;;;1.92;;
18411;SDS011;27097;51.738;19.472;2023-07-30T02:28:31;3.42;;;2.15;;
18411;SDS011;27097;51.738;19.472;2023-07-30T02:30:59;1.90;;;1.77;;
18411;SDS011;27097;51.738;19.472;2023-07-30T02:33:26;3.97;;;2.20;;
18411;SDS011;27097;51.738;19.472;2023-07-30T02:35:53;3.85;;;1.85;;
18411;SDS011;27097;51.738;19.472;2023-07-30T02:38:19;3.70;;;1.90;;
18411;SDS011;27097;51.738;19.472;2023-07-30T02:40:46;3.28;;;2.40;;
18411;SDS011;27097;51.738;19.472;2023-07-30T02:43:13;3.13;;;2.35;;
18411;SDS011;27097;51.738;19.472;2023-07-30T02:45:40;4.20;;;2.42;;
18411;SDS011;27097;51.738;19.472;2023-07-30T02:48:08;2.65;;;2.10;;
18411;SDS011;27097;51.738;19.472;2023-07-30T02:50:35;3.08;;;2.33;;
18411;SDS011;27097;51.738;19.472;2023-07-30T02:53:02;3.75;;;2.78;;
18411;SDS011;27097;51.738;19.472;2023-07-30T02:55:28;2.58;;;2.15;;
18411;SDS011;27097;51.738;19.472;2023-07-30T02:57:55;4.07;;;2.58;;
18411;SDS011;27097;51.738;19.472;2023-07-30T03:00:22;5.97;;;2.63;;
18411;SDS011;27097;51.738;19.472;2023-07-30T03:02:49;2.83;;;2.22;;
18411;SDS011;27097;51.738;19.472;2023-07-30T03:05:17;2.42;;;1.98;;
18411;SDS011;27097;51.738;19.472;2023-07-30T03:07:44;2.50;;;2.17;;
18411;SDS011;27097;51.738;19.472;2023-07-30T03:10:10;4.68;;;2.40;;
18411;SDS011;27097;51.738;19.472;2023-07-30T03:12:37;2.80;;;2.30;;
18411;SDS011;27097;51.738;19.472;2023-07-30T03:15:04;3.70;;;2.42;;
18411;SDS011;27097;51.738;19.472;2023-07-30T03:17:32;5.55;;;2.47;;
18411;SDS011;27097;51.738;19.472;2023-07-30T03:19:58;3.78;;;2.40;;
18411;SDS011;27097;51.738;19.472;2023-07-30T03:22:27;2.45;;;2.10;;
18411;SDS011;27097;51.738;19.472;2023-07-30T03:24:53;2.75;;;2.28;;
18411;SDS011;27097;51.738;19.472;2023-07-30T03:27:20;5.90;;;2.33;;
18411;SDS011;27097;51.738;19.472;2023-07-30T03:29:47;4.13;;;2.30;;
18411;SDS011;27097;51.738;19.472;2023-07-30T03:32:14;4.90;;;2.58;;
18411;SDS011;27097;51.738;19.472;2023-07-30T03:34:41;3.88;;;2.25;;
18411;SDS011;27097;51.738;19.472;2023-07-30T03:37:07;4.95;;;2.70;;
18411;SDS011;27097;51.738;19.472;2023-07-30T03:39:36;3.33;;;2.40;;
18411;SDS011;27097;51.738;19.472;2023-07-30T03:42:03;3.38;;;2.50;;
18411;SDS011;27097;51.738;19.472;2023-07-30T03:44:30;2.83;;;2.22;;
18411;SDS011;27097;51.738;19.472;2023-07-30T03:46:57;3.20;;;2.20;;
18411;SDS011;27097;51.738;19.472;2023-07-30T03:49:24;4.22;;;2.58;;
18411;SDS011;27097;51.738;19.472;2023-07-30T03:51:50;3.92;;;2.17;;
18411;SDS011;27097;51.738;19.472;2023-07-30T03:54:18;4.55;;;2.22;;
18411;SDS011;27097;51.738;19.472;2023-07-30T03:56:46;2.42;;;2.22;;
18411;SDS011;27097;51.738;19.472;2023-07-30T03:59:13;4.07;;;2.53;;
18411;SDS011;27097;51.738;19.472;2023-07-30T04:01:39;2.80;;;2.50;;
18411;SDS011;27097;51.738;19.472;2023-07-30T04:04:06;3.20;;;2.38;;
18411;SDS011;27097;51.738;19.472;2023-07-30T04:06:33;2.58;;;2.38;;
18411;SDS011;27097;51.738;19.472;2023-07-30T04:09:00;4.28;;;2.80;;
18411;SDS011;27097;51.738;19.472;2023-07-30T04:11:27;3.25;;;2.72;;
18411;SDS011;27097;51.738;19.472;2023-07-30T04:13:55;3.15;;;2.67;;
18411;SDS011;27097;51.738;19.472;2023-07-30T04:16:22;3.50;;;2.85;;
18411;SDS011;27097;51.738;19.472;2023-07-30T04:18:49;4.13;;;3.40;;
18411;SDS011;27097;51.738;19.472;2023-07-30T04:21:16;3.80;;;2.60;;
18411;SDS011;27097;51.738;19.472;2023-07-30T04:23:42;4.65;;;2.78;;
18411;SDS011;27097;51.738;19.472;2023-07-30T04:26:09;3.65;;;2.60;;
18411;SDS011;27097;51.738;19.472;2023-07-30T04:28:36;3.60;;;2.78;;
18411;SDS011;27097;51.738;19.472;2023-07-30T04:31:04;3.20;;;2.90;;
18411;SDS011;27097;51.738;19.472;2023-07-30T04:33:31;3.90;;;3.13;;
18411;SDS011;27097;51.738;19.472;2023-07-30T04:35:58;4.25;;;3.42;;
18411;SDS011;27097;51.738;19.472;2023-07-30T04:38:25;5.43;;;3.80;;
18411;SDS011;27097;51.738;19.472;2023-07-30T04:40:52;4.22;;;2.95;;
18411;SDS011;27097;51.738;19.472;2023-07-30T04:43:19;4.50;;;3.00;;
18411;SDS011;27097;51.738;19.472;2023-07-30T04:45:45;3.72;;;3.20;;
18411;SDS011;27097;51.738;19.472;2023-07-30T04:48:14;4.60;;;3.30;;
18411;SDS011;27097;51.738;19.472;2023-07-30T04:50:40;4.07;;;3.10;;
18411;SDS011;27097;51.738;19.472;2023-07-30T04:53:08;6.43;;;3.55;;
18411;SDS011;27097;51.738;19.472;2023-07-30T04:55:34;3.13;;;2.55;;
18411;SDS011;27097;51.738;19.472;2023-07-30T04:58:01;4.40;;;3.40;;
18411;SDS011;27097;51.738;19.472;2023-07-30T05:00:28;4.97;;;3.78;;
18411;SDS011;27097;51.738;19.472;2023-07-30T05:02:55;5.18;;;4.10;;
18411;SDS011;27097;51.738;19.472;2023-07-30T05:05:26;6.30;;;4.00;;
18411;SDS011;27097;51.738;19.472;2023-07-30T05:07:53;5.55;;;3.85;;
18411;SDS011;27097;51.738;19.472;2023-07-30T05:10:20;4.30;;;3.35;;
18411;SDS011;27097;51.738;19.472;2023-07-30T05:12:46;8.38;;;3.83;;
18411;SDS011;27097;51.738;19.472;2023-07-30T05:15:13;5.38;;;3.78;;
18411;SDS011;27097;51.738;19.472;2023-07-30T05:17:40;5.88;;;3.67;;
18411;SDS011;27097;51.738;19.472;2023-07-30T05:20:07;6.13;;;3.88;;
18411;SDS011;27097;51.738;19.472;2023-07-30T05:22:36;4.53;;;3.90;;
18411;SDS011;27097;51.738;19.472;2023-07-30T05:25:03;4.97;;;3.78;;
18411;SDS011;27097;51.738;19.472;2023-07-30T05:27:31;6.05;;;3.53;;
18411;SDS011;27097;51.738;19.472;2023-07-30T05:29:58;6.03;;;3.97;;
18411;SDS011;27097;51.738;19.472;2023-07-30T05:32:25;4.90;;;3.67;;
18411;SDS011;27097;51.738;19.472;2023-07-30T05:34:52;4.95;;;3.85;;
18411;SDS011;27097;51.738;19.472;2023-07-30T05:37:18;6.68;;;4.15;;
18411;SDS011;27097;51.738;19.472;2023-07-30T05:39:46;6.88;;;4.20;;
18411;SDS011;27097;51.738;19.472;2023-07-30T05:42:13;5.60;;;4.00;;
18411;SDS011;27097;51.738;19.472;2023-07-30T05:44:39;6.78;;;3.95;;
18411;SDS011;27097;51.738;19.472;2023-07-30T05:47:06;6.50;;;3.97;;
18411;SDS011;27097;51.738;19.472;2023-07-30T05:49:33;4.93;;;4.00;;
18411;SDS011;27097;51.738;19.472;2023-07-30T05:52:00;9.55;;;4.40;;
18411;SDS011;27097;51.738;19.472;2023-07-30T05:54:27;6.03;;;4.55;;
18411;SDS011;27097;51.738;19.472;2023-07-30T05:56:55;5.45;;;4.18;;
18411;SDS011;27097;51.738;19.472;2023-07-30T05:59:22;5.78;;;4.22;;
18411;SDS011;27097;51.738;19.472;2023-07-30T06:01:49;5.47;;;4.13;;
18411;SDS011;27097;51.738;19.472;2023-07-30T06:04:16;5.28;;;3.90;;
18411;SDS011;27097;51.738;19.472;2023-07-30T06:06:42;5.00;;;4.07;;
18411;SDS011;27097;51.738;19.472;2023-07-30T06:09:10;4.47;;;4.03;;
18411;SDS011;27097;51.738;19.472;2023-07-30T06:11:37;4.93;;;3.67;;
18411;SDS011;27097;51.738;19.472;2023-07-30T06:14:05;4.43;;;3.75;;
18411;SDS011;27097;51.738;19.472;2023-07-30T06:16:32;4.20;;;3.65;;
18411;SDS011;27097;51.738;19.472;2023-07-30T06:18:59;4.38;;;3.50;;
18411;SDS011;27097;51.738;19.472;2023-07-30T06:21:26;4.57;;;3.92;;
18411;SDS011;27097;51.738;19.472;2023-07-30T06:23:53;5.70;;;3.60;;
18411;SDS011;27097;51.738;19.472;2023-07-30T06:26:19;4.97;;;3.97;;
18411;SDS011;27097;51.738;19.472;2023-07-30T06:28:46;5.10;;;4.07;;
18411;SDS011;27097;51.738;19.472;2023-07-30T06:31:14;5.05;;;3.45;;
18411;SDS011;27097;51.738;19.472;2023-07-30T06:33:41;6.45;;;3.75;;
18411;SDS011;27097;51.738;19.472;2023-07-30T06:36:08;6.65;;;3.90;;
18411;SDS011;27097;51.738;19.472;2023-07-30T06:38:35;5.65;;;4.32;;
18411;SDS011;27097;51.738;19.472;2023-07-30T06:41:02;5.82;;;3.80;;
18411;SDS011;27097;51.738;19.472;2023-07-30T06:43:29;7.90;;;3.95;;
18411;SDS011;27097;51.738;19.472;2023-07-30T06:45:55;4.07;;;3.42;;
18411;SDS011;27097;51.738;19.472;2023-07-30T06:48:24;5.78;;;4.03;;
18411;SDS011;27097;51.738;19.472;2023-07-30T06:50:50;6.65;;;3.88;;
18411;SDS011;27097;51.738;19.472;2023-07-30T06:53:18;6.07;;;4.25;;
18411;SDS011;27097;51.738;19.472;2023-07-30T06:55:45;6.60;;;3.78;;
18411;SDS011;27097;51.738;19.472;2023-07-30T06:58:11;5.15;;;3.92;;
18411;SDS011;27097;51.738;19.472;2023-07-30T07:00:39;5.80;;;3.90;;
18411;SDS011;27097;51.738;19.472;2023-07-30T07:03:06;4.72;;;3.90;;
18411;SDS011;27097;51.738;19.472;2023-07-30T07:05:34;5.18;;;3.60;;
18411;SDS011;27097;51.738;19.472;2023-07-30T07:08:01;5.25;;;4.00;;
18411;SDS011;27097;51.738;19.472;2023-07-30T07:10:28;7.65;;;4.28;;
18411;SDS011;27097;51.738;19.472;2023-07-30T07:12:54;5.45;;;3.72;;
18411;SDS011;27097;51.738;19.472;2023-07-30T07:15:21;5.10;;;3.90;;
18411;SDS011;27097;51.738;19.472;2023-07-30T07:17:48;4.25;;;3.50;;
18411;SDS011;27097;51.738;19.472;2023-07-30T07:20:15;6.28;;;4.13;;
18411;SDS011;27097;51.738;19.472;2023-07-30T07:22:44;5.60;;;4.25;;
18411;SDS011;27097;51.738;19.472;2023-07-30T07:25:11;4.68;;;3.60;;
18411;SDS011;27097;51.738;19.472;2023-07-30T07:27:38;4.70;;;4.13;;
18411;SDS011;27097;51.738;19.472;2023-07-30T07:30:05;5.05;;;3.92;;
18411;SDS011;27097;51.738;19.472;2023-07-30T07:32:33;4.38;;;3.72;;
18411;SDS011;27097;51.738;19.472;2023-07-30T07:35:04;4.93;;;4.20;;
18411;SDS011;27097;51.738;19.472;2023-07-30T07:37:31;5.00;;;3.90;;
18411;SDS011;27097;51.738;19.472;2023-07-30T07:40:00;5.55;;;3.97;;
18411;SDS011;27097;51.738;19.472;2023-07-30T07:42:28;6.97;;;3.78;;
18411;SDS011;27097;51.738;19.472;2023-07-30T07:44:55;5.80;;;3.78;;
18411;SDS011;27097;51.738;19.472;2023-07-30T07:47:22;6.60;;;4.13;;
18411;SDS011;27097;51.738;19.472;2023-07-30T07:49:49;4.00;;;3.53;;
18411;SDS011;27097;51.738;19.472;2023-07-30T07:52:15;4.82;;;3.65;;
18411;SDS011;27097;51.738;19.472;2023-07-30T07:54:42;4.03;;;3.65;;
18411;SDS011;27097;51.738;19.472;2023-07-30T07:57:10;4.60;;;4.00;;
18411;SDS011;27097;51.738;19.472;2023-07-30T07:59:37;5.47;;;4.20;;
18411;SDS011;27097;51.738;19.472;2023-07-30T08:02:06;4.63;;;3.88;;
18411;SDS011;27097;51.738;19.472;2023-07-30T08:04:33;6.05;;;3.97;;
18411;SDS011;27097;51.738;19.472;2023-07-30T08:07:00;4.70;;;3.58;;
18411;SDS011;27097;51.738;19.472;2023-07-30T08:09:28;4.00;;;3.60;;
18411;SDS011;27097;51.738;19.472;2023-07-30T08:11:55;4.68;;;3.50;;
18411;SDS011;27097;51.738;19.472;2023-07-30T08:14:23;4.68;;;3.90;;
18411;SDS011;27097;51.738;19.472;2023-07-30T08:16:50;4.00;;;3.40;;
18411;SDS011;27097;51.738;19.472;2023-07-30T08:19:17;5.13;;;3.55;;
18411;SDS011;27097;51.738;19.472;2023-07-30T08:21:44;6.82;;;3.78;;
18411;SDS011;27097;51.738;19.472;2023-07-30T08:24:11;4.45;;;3.90;;
18411;SDS011;27097;51.738;19.472;2023-07-30T08:26:38;5.18;;;3.42;;
18411;SDS011;27097;51.738;19.472;2023-07-30T08:29:05;5.43;;;4.03;;
18411;SDS011;27097;51.738;19.472;2023-07-30T08:31:36;4.50;;;3.50;;
18411;SDS011;27097;51.738;19.472;2023-07-30T08:34:03;4.65;;;3.60;;
18411;SDS011;27097;51.738;19.472;2023-07-30T08:36:30;5.55;;;3.47;;
18411;SDS011;27097;51.738;19.472;2023-07-30T08:38:57;4.10;;;3.70;;
18411;SDS011;27097;51.738;19.472;2023-07-30T08:41:24;4.40;;;3.70;;
18411;SDS011;27097;51.738;19.472;2023-07-30T08:43:51;4.70;;;3.50;;
18411;SDS011;27097;51.738;19.472;2023-07-30T08:46:18;5.10;;;4.03;;
18411;SDS011;27097;51.738;19.472;2023-07-30T08:48:46;3.85;;;3.42;;
18411;SDS011;27097;51.738;19.472;2023-07-30T08:51:13;4.18;;;3.30;;
18411;SDS011;27097;51.738;19.472;2023-07-30T08:53:41;5.20;;;3.53;;
18411;SDS011;27097;51.738;19.472;2023-07-30T08:56:09;5.72;;;3.65;;
18411;SDS011;27097;51.738;19.472;2023-07-30T08:58:36;3.90;;;3.50;;
18411;SDS011;27097;51.738;19.472;2023-07-30T09:01:05;4.22;;;3.25;;
18411;SDS011;27097;51.738;19.472;2023-07-30T09:03:36;7.38;;;3.90;;
18411;SDS011;27097;51.738;19.472;2023-07-30T09:06:06;3.67;;;3.38;;
18411;SDS011;27097;51.738;19.472;2023-07-30T09:08:33;4.60;;;3.53;;
18411;SDS011;27097;51.738;19.472;2023-07-30T09:11:06;4.05;;;3.42;;
18411;SDS011;27097;51.738;19.472;2023-07-30T09:13:36;3.90;;;3.20;;
18411;SDS011;27097;51.738;19.472;2023-07-30T09:16:07;5.38;;;3.35;;
18411;SDS011;27097;51.738;19.472;2023-07-30T09:18:39;4.85;;;3.70;;
18411;SDS011;27097;51.738;19.472;2023-07-30T09:21:09;4.10;;;3.50;;
18411;SDS011;27097;51.738;19.472;2023-07-30T09:23:39;3.47;;;3.17;;
18411;SDS011;27097;51.738;19.472;2023-07-30T09:26:07;4.75;;;3.63;;
18411;SDS011;27097;51.738;19.472;2023-07-30T09:28:34;5.45;;;3.60;;
18411;SDS011;27097;51.738;19.472;2023-07-30T09:31:01;4.28;;;3.50;;
18411;SDS011;27097;51.738;19.472;2023-07-30T09:33:28;4.03;;;3.50;;
18411;SDS011;27097;51.738;19.472;2023-07-30T09:35:55;6.57;;;3.63;;
18411;SDS011;27097;51.738;19.472;2023-07-30T09:38:23;5.60;;;3.38;;
18411;SDS011;27097;51.738;19.472;2023-07-30T09:40:50;3.97;;;3.42;;
18411;SDS011;27097;51.738;19.472;2023-07-30T09:43:18;3.88;;;3.35;;
18411;SDS011;27097;51.738;19.472;2023-07-30T09:45:45;4.93;;;3.92;;
18411;SDS011;27097;51.738;19.472;2023-07-30T09:48:12;3.92;;;3.42;;
18411;SDS011;27097;51.738;19.472;2023-07-30T09:50:41;4.00;;;3.60;;
18411;SDS011;27097;51.738;19.472;2023-07-30T09:53:09;3.90;;;3.42;;
18411;SDS011;27097;51.738;19.472;2023-07-30T09:55:39;5.10;;;3.90;;
18411;SDS011;27097;51.738;19.472;2023-07-30T09:58:06;3.92;;;3.53;;
18411;SDS011;27097;51.738;19.472;2023-07-30T10:00:36;4.07;;;3.60;;
18411;SDS011;27097;51.738;19.472;2023-07-30T10:03:03;3.90;;;3.47;;
18411;SDS011;27097;51.738;19.472;2023-07-30T10:05:32;6.38;;;3.42;;
18411;SDS011;27097;51.738;19.472;2023-07-30T10:08:02;4.55;;;3.70;;
18411;SDS011;27097;51.738;19.472;2023-07-30T10:10:33;5.65;;;3.60;;
18411;SDS011;27097;51.738;19.472;2023-07-30T10:13:02;4.55;;;3.40;;
18411;SDS011;27097;51.738;19.472;2023-07-30T10:15:33;4.15;;;3.40;;
18411;SDS011;27097;51.738;19.472;2023-07-30T10:18:01;3.88;;;3.47;;
18411;SDS011;27097;51.738;19.472;2023-07-30T10:20:28;5.03;;;3.67;;
18411;SDS011;27097;51.738;19.472;2023-07-30T10:22:57;3.80;;;3.33;;
18411;SDS011;27097;51.738;19.472;2023-07-30T10:25:27;5.50;;;3.65;;
18411;SDS011;27097;51.738;19.472;2023-07-30T10:27:55;3.67;;;3.28;;
18411;SDS011;27097;51.738;19.472;2023-07-30T10:30:29;4.57;;;3.72;;
18411;SDS011;27097;51.738;19.472;2023-07-30T10:32:58;3.92;;;3.53;;
18411;SDS011;27097;51.738;19.472;2023-07-30T10:35:38;3.40;;;3.10;;
18411;SDS011;27097;51.738;19.472;2023-07-30T10:38:13;3.97;;;3.58;;
18411;SDS011;27097;51.738;19.472;2023-07-30T10:43:34;4.18;;;3.63;;
18411;SDS011;27097;51.738;19.472;2023-07-30T10:46:03;4.10;;;3.22;;
18411;SDS011;27097;51.738;19.472;2023-07-30T10:48:32;4.20;;;3.33;;
18411;SDS011;27097;51.738;19.472;2023-07-30T10:51:00;4.10;;;3.70;;
18411;SDS011;27097;51.738;19.472;2023-07-30T10:53:28;4.40;;;3.50;;
18411;SDS011;27097;51.738;19.472;2023-07-30T10:55:57;4.05;;;3.30;;
18411;SDS011;27097;51.738;19.472;2023-07-30T10:58:26;4.45;;;3.55;;
18411;SDS011;27097;51.738;19.472;2023-07-30T11:00:53;4.82;;;3.45;;
18411;SDS011;27097;51.738;19.472;2023-07-30T11:03:25;4.60;;;3.13;;
18411;SDS011;27097;51.738;19.472;2023-07-30T11:05:52;4.05;;;3.50;;
18411;SDS011;27097;51.738;19.472;2023-07-30T11:08:21;3.50;;;3.20;;
18411;SDS011;27097;51.738;19.472;2023-07-30T11:10:58;4.57;;;3.35;;
18411;SDS011;27097;51.738;19.472;2023-07-30T11:13:25;4.15;;;3.30;;
18411;SDS011;27097;51.738;19.472;2023-07-30T11:15:52;4.07;;;3.10;;
18411;SDS011;27097;51.738;19.472;2023-07-30T11:18:19;3.80;;;3.40;;
18411;SDS011;27097;51.738;19.472;2023-07-30T11:20:47;4.07;;;3.13;;
18411;SDS011;27097;51.738;19.472;2023-07-30T11:23:19;3.65;;;3.30;;
18411;SDS011;27097;51.738;19.472;2023-07-30T11:25:47;4.00;;;3.13;;
18411;SDS011;27097;51.738;19.472;2023-07-30T11:28:26;3.60;;;3.08;;
18411;SDS011;27097;51.738;19.472;2023-07-30T11:30:54;3.45;;;3.13;;
18411;SDS011;27097;51.738;19.472;2023-07-30T11:33:21;3.80;;;3.30;;
18411;SDS011;27097;51.738;19.472;2023-07-30T11:35:50;4.03;;;3.45;;
18411;SDS011;27097;51.738;19.472;2023-07-30T11:38:17;4.95;;;3.85;;
18411;SDS011;27097;51.738;19.472;2023-07-30T11:40:45;4.10;;;3.00;;
18411;SDS011;27097;51.738;19.472;2023-07-30T11:43:12;5.25;;;3.38;;
18411;SDS011;27097;51.738;19.472;2023-07-30T11:45:39;3.30;;;2.83;;
18411;SDS011;27097;51.738;19.472;2023-07-30T11:48:07;3.30;;;3.00;;
18411;SDS011;27097;51.738;19.472;2023-07-30T11:50:44;6.78;;;3.13;;
18411;SDS011;27097;51.738;19.472;2023-07-30T11:53:14;4.25;;;3.10;;
18411;SDS011;27097;51.738;19.472;2023-07-30T11:55:41;3.22;;;2.92;;
18411;SDS011;27097;51.738;19.472;2023-07-30T11:58:10;3.38;;;3.08;;
18411;SDS011;27097;51.738;19.472;2023-07-30T12:00:38;3.08;;;2.67;;
18411;SDS011;27097;51.738;19.472;2023-07-30T12:03:06;3.53;;;3.13;;
18411;SDS011;27097;51.738;19.472;2023-07-30T12:05:36;3.65;;;2.80;;
18411;SDS011;27097;51.738;19.472;2023-07-30T12:08:04;4.78;;;2.92;;
18411;SDS011;27097;51.738;19.472;2023-07-30T12:10:43;4.43;;;3.17;;
18411;SDS011;27097;51.738;19.472;2023-07-30T12:13:11;6.60;;;3.03;;
18411;SDS011;27097;51.738;19.472;2023-07-30T12:15:38;3.45;;;2.95;;
18411;SDS011;27097;51.738;19.472;2023-07-30T12:18:06;3.20;;;2.65;;
18411;SDS011;27097;51.738;19.472;2023-07-30T12:20:33;2.97;;;2.63;;
18411;SDS011;27097;51.738;19.472;2023-07-30T12:23:01;3.25;;;2.58;;
18411;SDS011;27097;51.738;19.472;2023-07-30T12:25:28;2.83;;;2.58;;
18411;SDS011;27097;51.738;19.472;2023-07-30T12:27:56;3.70;;;2.60;;
18411;SDS011;27097;51.738;19.472;2023-07-30T12:30:23;3.13;;;2.67;;
18411;SDS011;27097;51.738;19.472;2023-07-30T12:32:51;3.25;;;2.65;;
18411;SDS011;27097;51.738;19.472;2023-07-30T12:35:18;3.13;;;2.60;;
18411;SDS011;27097;51.738;19.472;2023-07-30T12:37:45;2.65;;;2.45;;
18411;SDS011;27097;51.738;19.472;2023-07-30T12:40:11;3.55;;;2.63;;
18411;SDS011;27097;51.738;19.472;2023-07-30T12:42:38;3.80;;;2.70;;
18411;SDS011;27097;51.738;19.472;2023-07-30T12:45:07;2.88;;;2.58;;
18411;SDS011;27097;51.738;19.472;2023-07-30T12:47:34;2.53;;;2.30;;
18411;SDS011;27097;51.738;19.472;2023-07-30T12:50:02;2.40;;;2.20;;
18411;SDS011;27097;51.738;19.472;2023-07-30T12:52:29;3.35;;;2.53;;
18411;SDS011;27097;51.738;19.472;2023-07-30T12:54:57;2.90;;;2.60;;
18411;SDS011;27097;51.738;19.472;2023-07-30T12:57:23;3.70;;;3.00;;
18411;SDS011;27097;51.738;19.472;2023-07-30T12:59:50;2.40;;;2.10;;
18411;SDS011;27097;51.738;19.472;2023-07-30T13:02:18;5.32;;;2.20;;
18411;SDS011;27097;51.738;19.472;2023-07-30T13:04:45;3.80;;;2.15;;
18411;SDS011;27097;51.738;19.472;2023-07-30T13:07:12;2.45;;;2.13;;
18411;SDS011;27097;51.738;19.472;2023-07-30T13:09:39;2.88;;;2.22;;
18411;SDS011;27097;51.738;19.472;2023-07-30T13:12:06;2.53;;;2.30;;
18411;SDS011;27097;51.738;19.472;2023-07-30T13:14:33;2.67;;;2.15;;
18411;SDS011;27097;51.738;19.472;2023-07-30T13:17:00;4.45;;;2.38;;
18411;SDS011;27097;51.738;19.472;2023-07-30T13:19:28;2.40;;;2.20;;
18411;SDS011;27097;51.738;19.472;2023-07-30T13:21:57;3.38;;;2.30;;
18411;SDS011;27097;51.738;19.472;2023-07-30T13:24:24;2.50;;;2.30;;
18411;SDS011;27097;51.738;19.472;2023-07-30T13:26:50;2.30;;;2.10;;
18411;SDS011;27097;51.738;19.472;2023-07-30T13:29:17;4.13;;;2.20;;
18411;SDS011;27097;51.738;19.472;2023-07-30T13:31:44;2.63;;;2.10;;
18411;SDS011;27097;51.738;19.472;2023-07-30T13:34:11;2.28;;;2.03;;
18411;SDS011;27097;51.738;19.472;2023-07-30T13:36:39;2.30;;;2.10;;
18411;SDS011;27097;51.738;19.472;2023-07-30T13:39:06;2.03;;;1.83;;
18411;SDS011;27097;51.738;19.472;2023-07-30T13:41:32;2.03;;;1.83;;
18411;SDS011;27097;51.738;19.472;2023-07-30T13:43:59;2.22;;;2.03;;
18411;SDS011;27097;51.738;19.472;2023-07-30T13:46:26;2.28;;;1.92;;
18411;SDS011;27097;51.738;19.472;2023-07-30T13:48:53;2.35;;;2.05;;
18411;SDS011;27097;51.738;19.472;2023-07-30T13:51:20;3.60;;;2.03;;
18411;SDS011;27097;51.738;19.472;2023-07-30T13:53:48;2.88;;;1.90;;
18411;SDS011;27097;51.738;19.472;2023-07-30T13:56:15;2.90;;;1.92;;
18411;SDS011;27097;51.738;19.472;2023-07-30T13:58:41;2.28;;;2.08;;
18411;SDS011;27097;51.738;19.472;2023-07-30T14:01:08;1.90;;;1.75;;
18411;SDS011;27097;51.738;19.472;2023-07-30T14:03:35;2.15;;;1.75;;
18411;SDS011;27097;51.738;19.472;2023-07-30T14:06:02;2.38;;;1.98;;
18411;SDS011;27097;51.738;19.472;2023-07-30T14:08:29;2.13;;;1.90;;
18411;SDS011;27097;51.738;19.472;2023-07-30T14:10:57;3.03;;;1.80;;
18411;SDS011;27097;51.738;19.472;2023-07-30T14:13:25;2.20;;;2.00;;
18411;SDS011;27097;51.738;19.472;2023-07-30T14:15:52;1.90;;;1.70;;
18411;SDS011;27097;51.738;19.472;2023-07-30T14:18:18;2.17;;;1.98;;
18411;SDS011;27097;51.738;19.472;2023-07-30T14:20:45;2.20;;;1.95;;
18411;SDS011;27097;51.738;19.472;2023-07-30T14:23:12;3.60;;;1.90;;
18411;SDS011;27097;51.738;19.472;2023-07-30T14:25:39;2.00;;;1.80;;
18411;SDS011;27097;51.738;19.472;2023-07-30T14:28:08;2.35;;;2.05;;
18411;SDS011;27097;51.738;19.472;2023-07-30T14:30:34;2.70;;;2.10;;
18411;SDS011;27097;51.738;19.472;2023-07-30T14:33:02;3.25;;;1.80;;
18411;SDS011;27097;51.738;19.472;2023-07-30T14:35:29;3.28;;;2.10;;
18411;SDS011;27097;51.738;19.472;2023-07-30T14:37:56;2.42;;;1.70;;